»·PEaware :: SWA5487 KSNA-KSFO

SWA5487 :: KSNA-KSFO

FLIGHT INFORMATION

Flight Status: Arrived
Operator:
Southwest Airlines
More flights by this operator :: More flights under this callsign
Pilot: Ben F. (2808)
Aircraft: BOEING 737-800
(B738)
More flights by this aircraft type
Origin: KSNA John Wayne-Orange Co
United States
Destination: KSFO San Francisco Intl
United States
More flights between these airports :: More routes between these airports
Route: +HAWWC2 IKAYE RIZIN SPLNT STOKD SERFR WWAVS1
File this flight plan on PilotEdge
Remarks: PBN / A1B1C1D1S1S2 DOF / 180109 REG / N8642E EET / KZOA0031 OPR / SWA PER / C RMK / TCAS SIMBRIEF
Altitude:
(Current/Filed)
36,000ft
Speed:
(Current/Filed)
459kts
Departed: 08-Jan-18 07:29 PM
Arrived: 08-Jan-18 08:26 PM
Distance/Time
Traveled:
323nm/0:56
Distance/Time
To Go:
Arrived

Flight Plot

Page will automatically refresh every two minutes.

Flight plan parsing failed; only flown route is shown


Map Options




Map Legend


Flown Route
Filed Route
Departure Airport
Arrival Airport
Navaid (VOR, NDB)
Fix

Horizontal Profiles

Position Reports

Time Latitude Longitude Heading Altitude Ground
Speed
08-Jan-18 19:13 33.674987 -117.865073 118 64ft 0kts
08-Jan-18 19:14 33.674987 -117.865073 118 64ft 0kts
08-Jan-18 19:15 33.674987 -117.865073 118 64ft 0kts
08-Jan-18 19:16 33.674987 -117.865073 118 64ft 0kts
08-Jan-18 19:17 33.674987 -117.865073 118 64ft 0kts
08-Jan-18 19:18 33.674987 -117.865073 118 64ft 0kts
08-Jan-18 19:19 33.674987 -117.865073 118 64ft 0kts
08-Jan-18 19:20 33.674987 -117.865073 118 64ft 0kts
08-Jan-18 19:21 33.674987 -117.865073 118 64ft 0kts
08-Jan-18 19:22 33.674987 -117.865073 118 64ft 0kts
08-Jan-18 19:23 33.674987 -117.865073 118 64ft 0kts
08-Jan-18 19:24 33.674987 -117.865073 118 64ft 0kts
08-Jan-18 19:25 33.674987 -117.865073 118 64ft 0kts
08-Jan-18 19:26 33.674987 -117.865073 118 64ft 0kts
08-Jan-18 19:27 33.674987 -117.865073 118 64ft 0kts
08-Jan-18 19:28 33.674987 -117.865073 118 64ft 0kts
08-Jan-18 19:29 33.675128 -117.865384 118 64ft 2kts
08-Jan-18 19:30 33.675169 -117.865475 118 64ft 0kts
08-Jan-18 19:31 33.675158 -117.865403 91 64ft 4kts
08-Jan-18 19:32 33.676004 -117.865251 17 64ft 3kts
08-Jan-18 19:33 33.679158 -117.863277 26 64ft 9kts
08-Jan-18 19:34 33.681221 -117.865370 214 64ft 7kts
08-Jan-18 19:35 33.672217 -117.871051 207 64ft 143kts
08-Jan-18 19:36 33.635501 -117.905710 222 2787ft 192kts
08-Jan-18 19:37 33.593736 -117.955257 222 5838ft 208kts
08-Jan-18 19:38 33.547338 -118.011631 225 7263ft 257kts
08-Jan-18 19:39 33.534685 -118.100283 259 8016ft 277kts
08-Jan-18 19:40 33.526255 -118.192221 258 8020ft 277kts
08-Jan-18 19:41 33.517906 -118.283821 258 8022ft 277kts
08-Jan-18 19:42 33.509564 -118.375630 258 8461ft 278kts
08-Jan-18 19:43 33.501939 -118.468193 258 12088ft 279kts
08-Jan-18 19:44 33.550983 -118.543624 325 14031ft 352kts
08-Jan-18 19:45 33.639729 -118.611516 320 14027ft 394kts
08-Jan-18 19:46 33.732937 -118.685821 320 16611ft 408kts
08-Jan-18 19:47 33.829763 -118.762391 320 19022ft 423kts
08-Jan-18 19:48 33.929712 -118.840959 319 21259ft 436kts
08-Jan-18 19:49 34.032382 -118.922273 319 23130ft 449kts
08-Jan-18 19:50 34.136435 -119.008589 312 24853ft 453kts
08-Jan-18 19:51 34.221057 -119.119682 301 26413ft 452kts
08-Jan-18 19:52 34.302931 -119.237253 301 27862ft 460kts
08-Jan-18 19:53 34.386141 -119.356248 300 29181ft 466kts
08-Jan-18 19:54 34.469155 -119.474734 299 30860ft 460kts
08-Jan-18 19:55 34.551543 -119.592978 298 32360ft 456kts
08-Jan-18 19:56 34.632882 -119.710167 298 33743ft 453kts
08-Jan-18 19:57 34.713934 -119.827355 298 34932ft 452kts
08-Jan-18 19:58 34.794884 -119.944792 298 35829ft 456kts
08-Jan-18 19:59 34.876492 -120.063580 299 35829ft 457kts
08-Jan-18 20:00 34.958068 -120.182389 299 35808ft 457kts
08-Jan-18 20:01 35.039349 -120.301757 299 35801ft 459kts
08-Jan-18 20:02 35.126198 -120.417847 307 35798ft 470kts
08-Jan-18 20:03 35.223080 -120.525020 307 35791ft 470kts
08-Jan-18 20:04 35.319903 -120.633177 307 35790ft 471kts
08-Jan-18 20:05 35.416022 -120.741753 307 35789ft 470kts
08-Jan-18 20:06 35.514278 -120.848398 313 35788ft 479kts
08-Jan-18 20:07 35.621461 -120.946709 313 35783ft 480kts
08-Jan-18 20:08 35.727896 -121.045702 313 35776ft 480kts
08-Jan-18 20:09 35.832782 -121.143276 313 34495ft 467kts
08-Jan-18 20:10 35.939062 -121.242840 315 30876ft 489kts
08-Jan-18 20:11 36.045399 -121.343044 316 28662ft 473kts
08-Jan-18 20:12 36.154085 -121.432727 323 26541ft 463kts
08-Jan-18 20:13 36.261748 -121.515698 323 24569ft 449kts
08-Jan-18 20:14 36.366325 -121.597505 323 22683ft 437kts
08-Jan-18 20:15 36.467594 -121.677277 323 20914ft 426kts
08-Jan-18 20:16 36.564126 -121.753340 323 18920ft 401kts
08-Jan-18 20:17 36.657151 -121.827105 323 17175ft 392kts
08-Jan-18 20:18 36.750970 -121.895641 335 15551ft 393kts
08-Jan-18 20:19 36.856587 -121.926500 345 13320ft 387kts
08-Jan-18 20:20 36.959828 -121.955418 343 11811ft 363kts
08-Jan-18 20:21 37.050796 -121.990939 340 10822ft 330kts
08-Jan-18 20:22 37.137043 -122.025130 341 10001ft 317kts
08-Jan-18 20:23 37.220594 -122.058032 341 9835ft 319kts
08-Jan-18 20:24 37.306593 -122.091873 341 8125ft 321kts
08-Jan-18 20:25 37.391478 -122.121583 5 6295ft 310kts
08-Jan-18 20:26 37.465888 -122.080577 8 4763ft 290kts
08-Jan-18 20:27 37.520305 -122.139597 294 3782ft 256kts
08-Jan-18 20:28 37.551731 -122.215494 296 2511ft 225kts
08-Jan-18 20:29 37.578120 -122.278301 297 1423ft 178kts
08-Jan-18 20:30 37.600334 -122.331185 297 519ft 161kts
08-Jan-18 20:31 37.618570 -122.374686 296 21ft 53kts
08-Jan-18 20:32 37.617669 -122.379447 171 21ft 14kts
08-Jan-18 20:33 37.613009 -122.382056 210 21ft 20kts
08-Jan-18 20:34 37.612172 -122.384287 49 21ft 4kts
08-Jan-18 20:35 37.612220 -122.384217 49 21ft 0kts
08-Jan-18 20:36 37.612220 -122.384217 49 21ft 0kts
08-Jan-18 20:37 37.612220 -122.384217 49 21ft 0kts
08-Jan-18 20:38 37.612220 -122.384217 49 21ft 0kts
08-Jan-18 20:39 37.612220 -122.384217 49 21ft 0kts
08-Jan-18 20:40 37.612220 -122.384217 49 21ft 0kts

Navigation Log

Ident Type
Flight plan parsing failed, navigation log unavailable